Sohar Majis, Oman

11:29 AM GST on July 24, 2016 (GMT +0400)
Fujairah International | | Change Station

Elev 92 ft 25.11 °N, 56.32 °E | Updated 29 minutes ago

Haze
Haze
91 °F
Feels Like 114 °F
N
13
Wind Variable Wind from East

Today
High -- | Low -- °F
--% Chance of Precip.
Yesterday
High -- | Low -- °F
Precip. -- in
Pressure 29.56 in
Visibility 1.9 miles
Clouds Few 1500 ft
Mostly Cloudy 2000 ft
Heat Index 114 °F
Dew Point 82 °F
Humidity 75%
Rainfall 0.00 in
Snow Depth Not available.
5:38 AM 7:01 PM
Waning Gibbous, 78% visible
METAR OMFJ 240700Z 10011KT 3000 HZ FEW015 BKN020 33/28 Q1001 A2956
Pressure 29.56 in
Visibility 1.9 miles
Clouds Few 1500 ft
Mostly Cloudy 2000 ft
Heat Index 114 °F
Dew Point 82 °F
Humidity 75%
Rainfall 0.00 in
Snow Depth Not available.
5:38 AM 7:01 PM
Waning Gibbous, 78% visible
METAR OMFJ 240700Z 10011KT 3000 HZ FEW015 BKN020 33/28 Q1001 A2956

10-Day Weather Forecast

No radar image for this location.
×

Almanac

Astronomy

Jul. 24, 2016 Rise Set
Actual Time
Civil Twilight
Nautical Twilight
Astronomical Twilight
Moon
Length of Visible Light
Length of Day
Tomorrow will be .
, % of the Moon is Illuminated

Today's Extremes

Country Highs Country Lows

Community

WunderPhotos

Upload Photos

1,927,037 photos uploaded!

WunderBlog® & News

Nearby

Air Quality

  Air Quality AQ Index Pollutant
Not available.

Snow Depth

Station Depth Elevation

Earthquake Activity

City Distance Mag. Time & Date
Minimum magnitude displayed is 2.5.

Coastal Water Temperatures

Place Temperature

Stations

Nearby Weather Stations

Station Location Temp. Windchill Dew Point Humidity Wind Precip. Elev Updated Type